createdAt,value
2023-03-27T00:00:44.751Z,34.00
2023-03-27T00:06:11.946Z,32.97
2023-03-27T00:11:16.060Z,32.47
2023-03-27T00:16:21.754Z,32.13
2023-03-27T00:21:25.935Z,32.67
2023-03-27T00:26:30.518Z,32.83
2023-03-27T00:31:34.818Z,33.38
2023-03-27T00:36:37.652Z,32.53
2023-03-27T00:41:40.649Z,32.50
2023-03-27T00:46:46.108Z,32.58
2023-03-27T00:51:49.683Z,32.65
2023-03-27T00:56:53.040Z,32.33
2023-03-27T01:02:07.291Z,32.72
2023-03-27T01:07:12.039Z,32.30
2023-03-27T01:12:36.509Z,32.42
2023-03-27T01:17:56.533Z,32.88
2023-03-27T01:23:35.377Z,32.60
2023-03-27T01:29:00.646Z,32.47
2023-03-27T01:34:34.247Z,32.25
2023-03-27T01:39:51.241Z,32.88
2023-03-27T01:44:59.365Z,32.72
2023-03-27T01:50:09.414Z,33.22
2023-03-27T01:55:19.122Z,33.10
2023-03-27T02:00:26.913Z,33.67
2023-03-27T02:05:56.641Z,33.17
2023-03-27T02:11:04.524Z,32.60
2023-03-27T02:16:12.910Z,33.33
2023-03-27T02:21:16.269Z,33.17
2023-03-27T02:26:21.701Z,33.50
2023-03-27T02:31:38.448Z,33.22
2023-03-27T02:36:50.917Z,34.22
2023-03-27T02:42:01.334Z,34.13
2023-03-27T02:47:14.834Z,34.50
2023-03-27T02:52:24.018Z,33.75
2023-03-27T02:57:31.758Z,33.45
2023-03-27T03:03:00.110Z,34.58
2023-03-27T03:08:03.419Z,33.83
2023-03-27T03:13:08.648Z,33.88
2023-03-27T03:18:14.138Z,34.30
2023-03-27T03:23:17.645Z,33.58
2023-03-27T03:28:22.261Z,33.97
2023-03-27T03:33:30.065Z,34.78
2023-03-27T03:38:38.385Z,33.72
2023-03-27T03:43:51.288Z,33.85
2023-03-27T03:48:54.554Z,35.03
2023-03-27T03:53:57.492Z,34.63
2023-03-27T03:59:01.939Z,34.50
2023-03-27T04:04:08.375Z,35.40
2023-03-27T04:09:33.597Z,34.30
2023-03-27T04:14:46.572Z,34.80
2023-03-27T04:20:10.180Z,38.35
2023-03-27T04:25:14.844Z,34.38
2023-03-27T04:30:23.359Z,34.50
2023-03-27T04:35:45.904Z,34.10
2023-03-27T04:41:18.461Z,33.70
2023-03-27T04:46:22.810Z,32.65
2023-03-27T04:51:32.534Z,33.72
2023-03-27T04:56:36.550Z,33.17
2023-03-27T05:01:40.970Z,33.30
2023-03-27T05:07:13.146Z,33.05
2023-03-27T05:12:17.685Z,37.08
2023-03-27T05:17:28.987Z,32.97
2023-03-27T05:22:31.943Z,31.80
2023-03-27T05:27:47.909Z,31.77
2023-03-27T05:32:53.869Z,31.45
2023-03-27T05:38:06.540Z,31.17
2023-03-27T05:43:11.270Z,31.75
2023-03-27T05:48:16.199Z,31.17
2023-03-27T05:53:20.393Z,31.27
2023-03-27T05:58:47.378Z,30.80
2023-03-27T06:03:56.025Z,30.87
2023-03-27T06:09:19.115Z,30.13
2023-03-27T06:14:41.413Z,30.93
2023-03-27T06:20:22.710Z,30.43
2023-03-27T06:25:32.079Z,30.73
2023-03-27T06:30:37.710Z,30.53
2023-03-27T06:36:00.712Z,31.67
2023-03-27T06:41:06.709Z,30.57
2023-03-27T06:46:44.640Z,30.87
2023-03-27T06:51:53.336Z,31.42
2023-03-27T06:57:00.806Z,31.53
2023-03-27T07:02:08.157Z,32.23
2023-03-27T07:07:12.413Z,31.40
2023-03-27T07:12:18.014Z,31.87
2023-03-27T07:17:23.924Z,32.33
2023-03-27T07:22:33.704Z,33.35
2023-03-27T07:27:42.412Z,32.47
2023-03-27T07:32:46.813Z,30.75
2023-03-27T07:37:53.461Z,31.53
2023-03-27T07:43:22.082Z,31.00
2023-03-27T07:48:25.218Z,30.77
2023-03-27T07:53:33.865Z,31.40
2023-03-27T07:58:44.981Z,31.50
2023-03-27T08:03:54.189Z,31.27
2023-03-27T08:09:01.581Z,30.50
2023-03-27T08:14:06.908Z,30.88
2023-03-27T08:19:11.446Z,30.53
2023-03-27T08:24:20.785Z,31.30
2023-03-27T08:29:45.308Z,31.77
2023-03-27T08:34:49.743Z,31.00
2023-03-27T08:39:58.952Z,30.83
2023-03-27T08:45:10.228Z,31.03
2023-03-27T08:50:32.309Z,31.38
2023-03-27T08:55:54.770Z,31.07
2023-03-27T09:01:11.520Z,31.20
2023-03-27T09:06:25.762Z,31.63
2023-03-27T09:11:42.117Z,30.98
2023-03-27T09:16:50.081Z,31.23
2023-03-27T09:22:17.984Z,31.05
2023-03-27T09:27:39.835Z,32.08
2023-03-27T09:33:00.102Z,31.70
2023-03-27T09:38:07.019Z,32.10
2023-03-27T09:43:18.821Z,32.20
2023-03-27T09:48:35.862Z,31.42
2023-03-27T09:53:59.260Z,31.67
2023-03-27T09:59:19.484Z,32.05
2023-03-27T10:04:24.364Z,32.30
2023-03-27T10:09:35.008Z,32.58
2023-03-27T10:14:47.338Z,32.05
2023-03-27T10:20:02.405Z,31.98
2023-03-27T10:25:17.586Z,31.35
2023-03-27T10:30:40.368Z,31.83
2023-03-27T10:36:01.163Z,31.60
2023-03-27T10:41:13.753Z,31.67
2023-03-27T10:46:26.944Z,32.05
2023-03-27T10:51:46.030Z,31.63
2023-03-27T10:57:00.602Z,31.58
2023-03-27T11:02:13.766Z,32.22
2023-03-27T11:07:25.257Z,32.88
2023-03-27T11:12:33.052Z,31.42
2023-03-27T11:17:42.431Z,32.45
2023-03-27T11:23:05.583Z,32.42
2023-03-27T11:28:24.955Z,32.20
2023-03-27T11:33:36.216Z,32.88
2023-03-27T11:38:47.634Z,32.70
2023-03-27T11:43:50.762Z,33.03
2023-03-27T11:49:32.148Z,32.33
2023-03-27T11:54:49.004Z,32.67
2023-03-27T12:00:11.055Z,32.83
2023-03-27T12:05:35.438Z,33.13
2023-03-27T12:10:42.441Z,32.90
2023-03-27T12:16:12.181Z,32.45
2023-03-27T12:21:46.564Z,32.38
2023-03-27T12:27:07.547Z,32.50
2023-03-27T12:32:38.497Z,32.83
2023-03-27T12:37:47.673Z,32.92
2023-03-27T12:42:53.435Z,32.67
2023-03-27T12:48:21.206Z,32.55
2023-03-27T12:53:49.981Z,32.53
2023-03-27T12:58:55.708Z,33.00
2023-03-27T13:04:20.737Z,32.60
2023-03-27T13:09:43.171Z,32.65
2023-03-27T13:15:06.724Z,33.13
2023-03-27T13:20:22.111Z,32.72
2023-03-27T13:25:33.160Z,32.85
2023-03-27T13:30:48.455Z,33.38
2023-03-27T13:36:24.513Z,32.92
2023-03-27T13:41:52.109Z,32.97
2023-03-27T13:47:55.225Z,32.88
2023-03-27T13:53:17.807Z,32.70
2023-03-27T13:58:57.844Z,33.65
2023-03-27T14:04:29.442Z,33.63
2023-03-27T14:09:52.617Z,33.05
2023-03-27T14:15:31.924Z,32.30
2023-03-27T14:20:56.278Z,32.58
2023-03-27T14:26:03.537Z,32.65
2023-03-27T14:31:19.291Z,32.63
2023-03-27T14:36:34.462Z,33.40
2023-03-27T14:41:46.823Z,33.42
2023-03-27T14:47:04.499Z,32.63
2023-03-27T14:52:09.770Z,32.33
2023-03-27T14:57:31.567Z,32.78
2023-03-27T15:02:42.290Z,32.70
2023-03-27T15:07:49.013Z,33.33
2023-03-27T15:13:11.483Z,33.45
2023-03-27T15:18:38.004Z,36.88
2023-03-27T15:23:48.770Z,32.60
2023-03-27T15:29:01.775Z,32.83
2023-03-27T15:34:12.628Z,32.65
2023-03-27T15:39:22.736Z,32.13
2023-03-27T15:44:32.012Z,32.28
2023-03-27T15:49:38.686Z,32.17
2023-03-27T15:54:55.469Z,31.60
2023-03-27T16:00:10.063Z,32.72
2023-03-27T16:05:21.241Z,32.05
2023-03-27T16:10:32.667Z,32.38
2023-03-27T16:15:38.019Z,32.63
2023-03-27T16:20:42.584Z,32.10
2023-03-27T16:25:46.187Z,32.42
2023-03-27T16:30:51.468Z,32.17
2023-03-27T16:35:58.373Z,32.10
2023-03-27T16:41:02.121Z,32.20
2023-03-27T16:46:17.592Z,32.53
2023-03-27T16:51:24.101Z,31.98
2023-03-27T16:56:27.029Z,32.83
2023-03-27T17:01:30.081Z,32.15
2023-03-27T17:06:34.429Z,32.75
2023-03-27T17:11:37.356Z,33.33
2023-03-27T17:16:40.637Z,32.38
2023-03-27T17:21:45.050Z,32.78
2023-03-27T17:26:48.991Z,32.75
2023-03-27T17:31:52.483Z,32.50
2023-03-27T17:37:06.077Z,32.78
2023-03-27T17:42:09.026Z,34.55
2023-03-27T17:47:11.992Z,33.70
2023-03-27T17:52:16.377Z,32.80
2023-03-27T17:57:19.390Z,32.63
2023-03-27T18:02:22.851Z,32.80
2023-03-27T18:07:27.781Z,33.67
2023-03-27T18:12:33.659Z,33.45
2023-03-27T18:17:36.607Z,33.38
2023-03-27T18:22:42.090Z,32.88
2023-03-27T18:27:45.173Z,32.72
2023-03-27T18:32:48.610Z,32.97
2023-03-27T18:37:52.905Z,33.40
2023-03-27T18:42:55.837Z,32.47
2023-03-27T18:48:01.170Z,32.80
2023-03-27T18:53:06.722Z,32.78
2023-03-27T18:58:09.637Z,33.38
2023-03-27T19:03:15.538Z,32.95
2023-03-27T19:08:21.768Z,32.55
2023-03-27T19:13:25.733Z,32.22
2023-03-27T19:18:51.553Z,32.45
2023-03-27T19:24:11.211Z,32.60
2023-03-27T19:29:18.851Z,33.33
2023-03-27T19:34:32.605Z,32.42
2023-03-27T19:39:40.771Z,32.60
2023-03-27T19:44:43.981Z,33.42
2023-03-27T19:49:47.057Z,33.10
2023-03-27T19:54:54.101Z,32.50
2023-03-27T19:59:59.592Z,32.88
2023-03-27T20:05:02.929Z,33.30
2023-03-27T20:10:08.089Z,32.55
2023-03-27T20:15:12.683Z,32.45
2023-03-27T20:20:19.831Z,32.53
2023-03-27T20:25:24.105Z,33.42
2023-03-27T20:30:27.676Z,32.42
2023-03-27T20:35:31.810Z,32.28
2023-03-27T20:40:53.156Z,32.53
2023-03-27T20:46:00.028Z,32.63
2023-03-27T20:51:04.629Z,32.50
2023-03-27T20:56:10.082Z,33.13
2023-03-27T21:01:13.226Z,33.25
2023-03-27T21:06:18.658Z,33.53
2023-03-27T21:11:22.961Z,33.40
2023-03-27T21:16:26.054Z,33.45
2023-03-27T21:21:29.101Z,34.88
2023-03-27T21:26:33.428Z,33.65
2023-03-27T21:31:36.420Z,33.05
2023-03-27T21:36:39.383Z,32.97
2023-03-27T21:41:43.769Z,32.97
2023-03-27T21:46:46.678Z,34.22
2023-03-27T21:51:49.672Z,33.22
2023-03-27T21:56:53.969Z,32.83
2023-03-27T22:01:57.699Z,32.70
2023-03-27T22:07:00.869Z,33.60
2023-03-27T22:12:06.164Z,32.65
2023-03-27T22:17:09.258Z,32.80
2023-03-27T22:22:18.180Z,32.95
2023-03-27T22:27:22.722Z,32.58
2023-03-27T22:32:26.049Z,32.97
2023-03-27T22:37:28.996Z,32.38
2023-03-27T22:42:33.886Z,32.28
2023-03-27T22:47:36.867Z,32.72
2023-03-27T22:52:39.812Z,33.38
2023-03-27T22:57:44.091Z,33.30
2023-03-27T23:02:47.108Z,32.83
2023-03-27T23:07:50.115Z,34.17
2023-03-27T23:12:54.505Z,32.42
2023-03-27T23:17:57.481Z,33.35
2023-03-27T23:23:00.401Z,32.97
2023-03-27T23:28:04.726Z,32.65
2023-03-27T23:33:07.893Z,32.70
2023-03-27T23:38:10.840Z,33.70
2023-03-27T23:43:15.024Z,32.97
2023-03-27T23:48:18.181Z,32.42
2023-03-27T23:53:21.988Z,33.22
2023-03-27T23:58:28.627Z,33.13
